Time;durP1;ratioP1;P1;durP2;ratioP2;P2;SDS_P1;SDS_P2;PMS_P1;PMS_P2;Temp;Humidity;BMP_temperature;BMP_pressure;BME280_temperature;BME280_humidity;BME280_pressure;Samples;Min_cycle;Max_cycle;Signal;HPM_P1;HPM_P2
2022/10/14 00:02:04;;;;;;;48.33;20.52;;;;;;;;;;4953388;28;20055;-78
2022/10/14 00:04:29;;;;;;;48.05;20.95;;;;;;;;;;4949966;28;20503;-77
2022/10/14 00:06:55;;;;;;;48.88;21.75;;;;;;;;;;4951617;28;20039;-77
2022/10/14 00:09:20;;;;;;;47.97;21.08;;;;;;;11.46;100.00;68041.78;4952124;28;20106;-77
2022/10/14 00:11:46;;;;;;;50.60;21.83;;;;;;;11.44;100.00;68039.50;4951772;28;20039;-77
2022/10/14 00:14:16;;;;;;;42.05;19.58;;;;;;;11.43;100.00;68037.78;4952828;28;20050;-79
2022/10/14 00:16:43;;;;;;;48.33;22.02;;;;;;;11.40;100.00;68034.97;4948407;28;20043;-76
2022/10/14 00:19:09;;;;;;;51.28;22.05;;;;;;;11.39;100.00;68033.81;4952128;28;20039;-76
2022/10/14 00:21:37;;;;;;;47.75;21.23;;;;;;;11.38;100.00;68032.69;4952984;28;20035;-77
2022/10/14 00:24:02;;;;;;;51.25;23.27;;;;;;;;;;4950164;28;20051;-79
2022/10/14 00:26:31;;;;;;;45.40;19.83;;;;;;;11.35;100.00;68034.03;4951743;28;20058;-78
2022/10/14 00:28:56;;;;;;;46.60;19.77;;;;;;;;;;4952316;28;20050;-77
2022/10/14 00:31:22;;;;;;;50.00;21.77;;;;;;;11.30;100.00;68024.16;4951171;28;20073;-77
2022/10/14 00:33:48;;;;;;;49.58;20.77;;;;;;;;;;4951903;28;20043;-79
2022/10/14 00:36:14;;;;;;;45.08;21.05;;;;;;;;;;4952302;28;20047;-77
2022/10/14 00:38:40;;;;;;;46.83;21.20;;;;;;;11.25;100.00;68023.25;4951866;28;20603;-78
2022/10/14 00:41:07;;;;;;;51.10;21.85;;;;;;;11.23;100.00;68016.22;4952165;28;20055;-76
2022/10/14 00:43:52;;;;;;;49.72;20.63;;;;;;;;;;4952238;28;20043;-79
2022/10/14 00:46:18;;;;;;;42.42;19.17;;;;;;;11.22;100.00;68015.09;4934896;29;20070;-76
2022/10/14 00:48:43;;;;;;;44.13;19.88;;;;;;;11.22;100.00;68014.50;4952185;28;20499;-77
2022/10/14 00:51:09;;;;;;;47.50;20.45;;;;;;;;;;4952346;28;20043;-78
2022/10/14 00:53:36;;;;;;;50.85;22.00;;;;;;;11.16;100.00;68008.25;4950809;28;20336;-76
2022/10/14 00:56:02;;;;;;;48.80;20.08;;;;;;;;;;4949639;28;20047;-79
2022/10/14 00:58:27;;;;;;;48.03;19.23;;;;;;;11.15;100.00;68012.47;4947576;28;20047;-79
2022/10/14 01:00:52;;;;;;;46.58;21.33;;;;;;;;;;4951852;28;20049;-78
2022/10/14 01:03:21;;;;;;;48.30;20.85;;;;;;;11.16;100.00;68007.69;4951886;28;20062;-79
2022/10/14 01:06:00;;;;;;;50.08;21.40;;;;;;;11.16;100.00;68008.25;4951701;28;20035;-78
2022/10/14 01:08:29;;;;;;;51.83;21.70;;;;;;;;;;4951318;28;20038;-78
2022/10/14 01:11:03;;;;;;;48.70;20.42;;;;;;;11.14;100.00;68006.00;4951516;28;20406;-78
2022/10/14 01:13:42;;;;;;;49.58;21.90;;;;;;;11.12;100.00;68003.16;4952136;28;20066;-77
2022/10/14 01:16:16;;;;;;;47.35;21.10;;;;;;;11.11;100.00;68002.03;4951161;28;20115;-77
2022/10/14 01:18:51;;;;;;;47.10;20.33;;;;;;;;;;4948758;28;20075;-78
2022/10/14 01:21:55;;;;;;;51.20;21.55;;;;;;;11.10;100.00;68000.88;4917231;29;20706;-78
2022/10/14 01:24:41;;;;;;;55.47;22.40;;;;;;;11.09;100.00;68000.31;4908022;29;20486;-79
2022/10/14 01:27:51;;;;;;;51.85;22.23;;;;;;;11.10;100.00;68000.88;4951718;28;20474;-77
2022/10/14 01:30:18;;;;;;;54.58;21.88;;;;;;;11.08;100.00;67999.19;4857002;29;20053;-78
2022/10/14 01:32:46;;;;;;;62.40;24.38;;;;;;;;;;4939192;28;20050;-78
2022/10/14 01:35:34;;;;;;;67.78;26.13;;;;;;;11.04;100.00;67995.22;4948145;28;20404;-78
2022/10/14 01:38:02;;;;;;;59.10;24.20;;;;;;;;;;4942282;28;20099;-78
2022/10/14 01:40:45;;;;;;;64.63;23.80;;;;;;;11.05;100.00;67995.78;4947820;29;20825;-78
2022/10/14 01:43:12;;;;;;;63.03;24.55;;;;;;;;;;4946092;28;20051;-76
2022/10/14 01:45:41;;;;;;;60.75;25.48;;;;;;;11.05;100.00;67995.78;4948568;28;20043;-78
2022/10/14 01:48:06;;;;;;;63.85;24.50;;;;;;;;;;4943159;29;20044;-77
2022/10/14 01:50:35;;;;;;;65.32;25.45;;;;;;;11.08;100.00;68007.19;4948023;28;20050;-77
2022/10/14 01:53:05;;;;;;;64.25;26.05;;;;;;;11.09;100.00;68000.31;4944257;28;20047;-76
2022/10/14 01:55:33;;;;;;;66.30;27.02;;;;;;;;;;4948329;28;20494;-77
2022/10/14 01:58:00;;;;;;;70.97;28.80;;;;;;;11.07;100.00;68003.38;4945567;28;20375;-78
2022/10/14 02:00:25;;;;;;;69.07;27.38;;;;;;;11.06;100.00;67996.91;4947046;28;20060;-76
2022/10/14 02:02:50;;;;;;;77.82;28.98;;;;;;;11.04;100.00;67995.22;4948278;28;20051;-77
2022/10/14 02:05:22;;;;;;;78.93;29.67;;;;;;;11.04;100.00;67994.66;4947972;28;20078;-77
2022/10/14 02:07:56;;;;;;;76.80;28.75;;;;;;;11.05;100.00;67995.78;4946528;28;20041;-76
2022/10/14 02:10:24;;;;;;;74.85;30.05;;;;;;;11.05;100.00;67996.34;4948139;28;20054;-77
2022/10/14 02:13:05;;;;;;;87.25;32.05;;;;;;;11.04;100.00;68000.53;4943979;28;20047;-77
2022/10/14 02:15:30;;;;;;;84.65;33.08;;;;;;;;;;4947275;28;20133;-77
2022/10/14 02:18:17;;;;;;;84.63;31.43;;;;;;;11.01;100.00;67997.13;4946983;28;20039;-77
2022/10/14 02:21:28;;;;;;;94.65;34.83;;;;;;;11.01;100.00;67999.78;4948195;28;20804;-77
2022/10/14 02:24:01;;;;;;;92.03;34.63;;;;;;;;;;4943374;28;20074;-80
2022/10/14 02:26:27;;;;;;;95.70;37.38;;;;;;;10.99;100.00;67989.56;4947745;28;20051;-79
2022/10/14 02:28:54;;;;;;;95.63;36.10;;;;;;;;;;4946163;28;20071;-77
2022/10/14 02:31:19;;;;;;;102.30;37.70;;;;;;;11.00;100.00;67990.69;4931426;29;20472;-76
2022/10/14 02:33:51;;;;;;;103.03;37.85;;;;;;;11.01;100.00;67991.25;4947118;28;20102;-77
2022/10/14 02:36:17;;;;;;;113.88;39.15;;;;;;;;;;4947911;28;20134;-77
2022/10/14 02:38:46;;;;;;;113.80;39.45;;;;;;;11.01;100.00;67991.25;4945584;28;20047;-76
2022/10/14 02:41:16;;;;;;;109.82;39.65;;;;;;;11.02;100.00;67997.72;4931572;29;20043;-77
2022/10/14 02:43:44;;;;;;;124.13;40.67;;;;;;;11.01;100.00;67991.25;4949267;28;20059;-75
2022/10/14 02:46:09;;;;;;;118.13;39.95;;;;;;;;;;4948916;28;20079;-76
2022/10/14 02:48:34;;;;;;;118.47;40.25;;;;;;;11.00;100.00;67990.69;4929421;29;20071;-76
2022/10/14 02:51:00;;;;;;;124.90;40.80;;;;;;;11.02;100.00;67992.94;4948483;28;20078;-77
2022/10/14 02:53:25;;;;;;;124.70;40.90;;;;;;;11.02;100.00;67998.28;4946322;28;20102;-78
2022/10/14 02:55:50;;;;;;;118.82;40.72;;;;;;;11.01;100.00;67997.13;4948630;28;20475;-78
2022/10/14 02:58:16;;;;;;;124.55;40.45;;;;;;;11.01;100.00;67991.81;4947884;28;20047;-77
2022/10/14 03:00:41;;;;;;;147.70;42.33;;;;;;;10.99;100.00;67989.56;4931587;29;20348;-78
2022/10/14 03:03:07;;;;;;;165.52;43.03;;;;;;;10.99;100.00;67994.88;4947343;28;20059;-77
2022/10/14 03:05:32;;;;;;;208.60;43.92;;;;;;;;;;4949510;28;20043;-77
2022/10/14 03:07:58;;;;;;;136.73;41.88;;;;;;;10.98;100.00;67993.72;4950391;28;20035;-79
2022/10/14 03:10:23;;;;;;;147.98;42.70;;;;;;;10.99;100.00;67994.88;4933442;29;20062;-79
2022/10/14 03:12:49;;;;;;;145.38;41.40;;;;;;;10.98;100.00;67988.41;4950908;28;20333;-77
2022/10/14 03:15:15;;;;;;;166.57;43.25;;;;;;;10.97;100.00;67986.72;4951638;28;20569;-79
2022/10/14 03:17:40;;;;;;;130.15;41.40;;;;;;;10.96;100.00;67985.56;4950428;28;20540;-77
2022/10/14 03:20:06;;;;;;;135.45;42.90;;;;;;;10.96;100.00;67991.47;4949080;28;21645;-78
2022/10/14 03:22:31;;;;;;;140.68;41.25;;;;;;;10.96;100.00;67991.47;4950351;28;20039;-78
2022/10/14 03:24:57;;;;;;;129.10;42.10;;;;;;;10.97;100.00;67986.72;4950451;28;20047;-77
2022/10/14 03:27:22;;;;;;;129.60;41.80;;;;;;;10.96;100.00;67986.16;4949314;28;20047;-78
2022/10/14 03:29:47;;;;;;;148.90;42.70;;;;;;;;;;4949147;28;20522;-78
2022/10/14 03:32:13;;;;;;;127.68;40.15;;;;;;;10.90;100.00;67984.63;4953488;28;20035;-78
2022/10/14 03:34:38;;;;;;;148.88;42.45;;;;;;;;;;4952747;28;20054;-78
2022/10/14 03:37:03;;;;;;;139.55;41.88;;;;;;;10.95;100.00;67984.44;4952914;28;20493;-77
2022/10/14 03:39:29;;;;;;;130.02;40.92;;;;;;;10.94;100.00;67981.22;4952614;28;22641;-79
2022/10/14 03:41:54;;;;;;;135.82;43.22;;;;;;;;;;4953061;28;20035;-79
2022/10/14 03:44:19;;;;;;;165.15;45.38;;;;;;;10.96;100.00;67986.16;4936494;29;20090;-77
2022/10/14 03:46:45;;;;;;;144.20;44.13;;;;;;;;;;4953669;28;20080;-78
2022/10/14 03:49:11;;;;;;;150.18;43.78;;;;;;;10.95;100.00;67984.44;4952543;28;20043;-75
2022/10/14 03:51:36;;;;;;;155.25;44.03;;;;;;;10.96;100.00;67985.56;4952648;28;20328;-76
2022/10/14 03:54:02;;;;;;;161.73;45.33;;;;;;;;;;4951856;28;20047;-78
2022/10/14 03:56:27;;;;;;;151.63;44.85;;;;;;;10.91;100.00;67980.47;4953771;28;20503;-79
2022/10/14 03:58:52;;;;;;;134.70;42.85;;;;;;;;;;4952285;28;20049;-78
2022/10/14 04:01:18;;;;;;;136.80;42.33;;;;;;;10.95;100.00;67989.75;4952387;28;20043;-79
2022/10/14 04:14:03;;;;;;;159.02;44.42;;;;;;;10.93;100.00;67987.47;5812739;23;20043;-77
2022/10/14 04:16:29;;;;;;;147.20;42.85;;;;;;;10.93;100.00;67982.16;4940833;28;20054;-77
2022/10/14 04:18:54;;;;;;;137.32;43.17;;;;;;;10.93;100.00;67980.06;4953617;28;20047;-77
2022/10/14 04:21:19;;;;;;;144.40;43.90;;;;;;;;;;4955676;28;20052;-77
2022/10/14 04:23:45;;;;;;;136.68;42.88;;;;;;;10.96;100.00;67991.47;4956626;28;20042;-76
2022/10/14 04:26:10;;;;;;;139.75;42.08;;;;;;;10.96;100.00;67986.16;4952315;28;20066;-77
2022/10/14 04:28:36;;;;;;;134.27;41.38;;;;;;;10.95;100.00;67990.31;4959836;28;20098;-77
2022/10/14 04:31:02;;;;;;;146.38;43.75;;;;;;;;;;4954595;28;20519;-76
2022/10/14 04:33:28;;;;;;;145.15;43.20;;;;;;;;;;4953248;28;20059;-76
2022/10/14 04:35:57;;;;;;;161.93;45.45;;;;;;;10.96;100.00;67991.47;4957284;28;20330;-77
2022/10/14 04:38:23;;;;;;;148.07;43.00;;;;;;;10.96;100.00;67991.47;4952520;28;20070;-77
2022/10/14 04:40:48;;;;;;;148.38;43.55;;;;;;;10.98;100.00;67987.84;4936406;28;20468;-76
2022/10/14 04:43:14;;;;;;;152.43;42.00;;;;;;;10.97;100.00;67992.59;4959907;28;20043;-77
2022/10/14 04:45:40;;;;;;;138.98;41.97;;;;;;;;;;4952413;28;20143;-76
2022/10/14 04:48:13;;;;;;;141.77;42.13;;;;;;;10.97;100.00;67994.69;4947841;28;20510;-76
2022/10/14 04:50:39;;;;;;;141.95;41.00;;;;;;;;;;4950727;28;20129;-77
2022/10/14 04:53:04;;;;;;;140.02;40.15;;;;;;;10.96;100.00;67986.16;4955611;28;20134;-76
2022/10/14 04:55:30;;;;;;;122.40;39.58;;;;;;;;;;4952928;28;20498;-77
2022/10/14 04:57:55;;;;;;;124.25;38.72;;;;;;;10.98;100.00;67987.84;4953543;28;20074;-77
2022/10/14 05:00:20;;;;;;;140.50;42.10;;;;;;;11.00;100.00;67995.44;4952264;28;20142;-77
2022/10/14 05:02:46;;;;;;;121.68;40.00;;;;;;;11.02;100.00;67992.94;4947832;28;20042;-77
2022/10/14 05:05:13;;;;;;;120.38;38.33;;;;;;;11.03;100.00;67998.84;4950729;28;20063;-76
2022/10/14 05:07:39;;;;;;;122.03;38.42;;;;;;;11.04;100.00;68000.53;4959078;28;20053;-77
2022/10/14 05:10:05;;;;;;;113.10;39.03;;;;;;;11.05;100.00;68001.69;4954507;28;20049;-76
2022/10/14 05:12:30;;;;;;;118.88;39.40;;;;;;;;;;4955118;28;20513;-76
2022/10/14 05:14:56;;;;;;;130.48;41.55;;;;;;;11.09;100.00;68005.09;4953370;28;20043;-76
2022/10/14 05:17:21;;;;;;;118.22;40.13;;;;;;;;;;4956351;28;20054;-76
2022/10/14 05:19:47;;;;;;;143.88;42.13;;;;;;;11.11;100.00;68002.03;4957721;28;20043;-77
2022/10/14 05:22:12;;;;;;;125.93;41.15;;;;;;;;;;4958601;28;20042;-76
2022/10/14 05:24:37;;;;;;;136.55;40.10;;;;;;;11.14;100.00;68002.78;4955516;28;20070;-77
2022/10/14 05:27:03;;;;;;;134.65;41.63;;;;;;;11.15;100.00;68007.13;4953131;28;20518;-76
2022/10/14 05:29:28;;;;;;;124.15;39.40;;;;;;;11.16;100.00;68007.69;4953852;28;20483;-76
2022/10/14 05:31:54;;;;;;;144.10;43.58;;;;;;;11.17;100.00;68008.84;4956708;28;20050;-76
2022/10/14 05:34:19;;;;;;;129.98;40.58;;;;;;;11.18;100.00;68015.31;4948810;28;20070;-77
2022/10/14 05:36:45;;;;;;;130.23;42.50;;;;;;;11.19;100.00;68008.44;4953008;28;20498;-77
2022/10/14 05:39:10;;;;;;;134.48;40.85;;;;;;;11.22;100.00;68019.84;4952822;28;20262;-77
2022/10/14 05:41:36;;;;;;;130.18;42.25;;;;;;;11.24;100.00;68014.69;4953940;28;20035;-76
2022/10/14 05:44:02;;;;;;;131.75;43.13;;;;;;;11.26;100.00;68024.38;4950432;28;20043;-77
2022/10/14 05:46:28;;;;;;;129.18;44.22;;;;;;;11.27;100.00;68020.75;4956228;28;20039;-77
2022/10/14 05:48:53;;;;;;;138.13;42.85;;;;;;;;;;4955436;28;20469;-77
2022/10/14 05:51:20;;;;;;;120.47;42.33;;;;;;;11.32;100.00;68025.31;4955620;28;20090;-78
2022/10/14 05:53:46;;;;;;;133.55;44.97;;;;;;;11.36;100.00;68027.19;4964020;28;20054;-76
2022/10/14 05:56:12;;;;;;;129.52;45.05;;;;;;;11.37;100.00;68031.00;4959478;28;20250;-78
2022/10/14 05:58:37;;;;;;;136.38;43.88;;;;;;;11.39;100.00;68033.81;4961426;28;20034;-78
2022/10/14 06:01:05;;;;;;;130.10;42.97;;;;;;;11.41;100.00;68032.84;4959795;28;20035;-79
2022/10/14 06:03:30;;;;;;;124.50;41.35;;;;;;;11.42;100.00;68036.66;4961529;28;20078;-76
2022/10/14 06:05:56;;;;;;;144.27;45.25;;;;;;;11.45;100.00;68040.63;4962279;28;20061;-79
2022/10/14 06:08:23;;;;;;;145.38;43.92;;;;;;;11.47;100.00;68042.34;4952246;28;20055;-78
2022/10/14 06:10:49;;;;;;;132.25;42.20;;;;;;;11.52;100.00;68048.00;4953252;28;20050;-78
2022/10/14 06:13:14;;;;;;;130.38;41.33;;;;;;;11.56;100.00;68047.22;4939773;28;20039;-77
2022/10/14 06:15:40;;;;;;;133.98;41.35;;;;;;;11.58;100.00;68062.25;4959498;28;20050;-77
2022/10/14 06:18:05;;;;;;;133.68;43.92;;;;;;;11.60;100.00;68057.09;4955378;28;20150;-80
2022/10/14 06:20:31;;;;;;;123.45;41.97;;;;;;;11.62;100.00;68064.13;4956101;28;20513;-77
2022/10/14 06:23:01;;;;;;;126.32;41.40;;;;;;;11.66;100.00;68063.34;4940562;28;20050;-78
2022/10/14 06:25:26;;;;;;;;;;;;;;;11.70;100.00;68068.44;4955954;28;20057;-78
2022/10/14 06:27:51;;;;;;;134.68;41.33;;;;;;;11.63;100.00;68060.50;4956793;28;19922;-79
2022/10/14 06:30:17;;;;;;;132.20;41.78;;;;;;;11.66;100.00;68063.34;4954528;28;20067;-79
2022/10/14 06:32:42;;;;;;;127.05;41.05;;;;;;;;;;4960077;28;20573;-77
2022/10/14 06:35:08;;;;;;;134.60;40.42;;;;;;;;;;4930170;28;20063;-78
2022/10/14 06:37:33;;;;;;;136.13;43.42;;;;;;;11.81;100.00;68080.38;4953657;28;20038;-78
2022/10/14 06:39:58;;;;;;;134.05;40.28;;;;;;;;;;4948725;28;20075;-77
2022/10/14 06:42:24;;;;;;;140.67;41.23;;;;;;;11.88;100.00;68087.78;4953622;28;20106;-77
2022/10/14 06:44:49;;;;;;;142.90;41.47;;;;;;;;;;4930842;28;20298;-77
2022/10/14 06:47:14;;;;;;;146.15;41.17;;;;;;;11.95;100.00;68095.75;4947099;28;20044;-78
2022/10/14 06:49:40;;;;;;;135.05;41.38;;;;;;;11.97;100.00;68098.03;4955359;28;20046;-78
2022/10/14 06:52:05;;;;;;;135.77;40.83;;;;;;;12.00;100.00;68096.09;4957053;28;20533;-77
2022/10/14 06:54:30;;;;;;;131.57;38.50;;;;;;;12.00;100.00;68098.16;4951756;28;20051;-79
2022/10/14 06:56:56;;;;;;;135.18;37.22;;;;;;;12.04;100.00;68111.28;4958407;28;20235;-78
2022/10/14 06:59:21;;;;;;;108.80;35.95;;;;;;;12.07;100.00;68106.13;4948361;28;20055;-78
2022/10/14 07:01:47;;;;;;;127.15;36.75;;;;;;;12.09;100.00;68108.41;4958930;28;20039;-78
2022/10/14 07:04:12;;;;;;;107.90;34.70;;;;;;;12.11;100.00;68113.34;4951486;28;20070;-77
2022/10/14 07:06:37;;;;;;;108.18;35.80;;;;;;;;;;4951385;28;20073;-80
2022/10/14 07:09:03;;;;;;;105.67;33.20;;;;;;;;;;4955455;28;20044;-78
2022/10/14 07:11:29;;;;;;;115.60;34.47;;;;;;;12.19;100.00;68119.75;4952369;28;20290;-77
2022/10/14 07:13:55;;;;;;;112.32;33.17;;;;;;;;;;4961009;28;20039;-80
2022/10/14 07:16:20;;;;;;;111.10;35.90;;;;;;;;;;4958953;28;20043;-79
2022/10/14 07:18:45;;;;;;;112.70;33.53;;;;;;;;;;4959925;28;20073;-81
2022/10/14 07:21:11;;;;;;;104.88;33.53;;;;;;;12.28;100.00;68132.09;4948794;28;20081;-81
2022/10/14 07:23:36;;;;;;;100.20;33.78;;;;;;;12.28;100.00;68129.97;4959535;28;20100;-79
2022/10/14 07:26:02;;;;;;;100.43;32.80;;;;;;;12.30;100.00;68134.38;4958068;28;20048;-79
2022/10/14 07:28:27;;;;;;;100.57;31.88;;;;;;;12.32;100.00;68136.66;4957001;28;20067;-79
2022/10/14 07:31:02;;;;;;;103.93;35.05;;;;;;;;;;4963332;28;20513;-80
2022/10/14 07:33:27;;;;;;;112.65;34.63;;;;;;;;;;4943384;28;20043;-79
2022/10/14 07:35:52;;;;;;;107.50;34.53;;;;;;;;;;4961205;28;20518;-79
2022/10/14 07:38:17;;;;;;;108.97;36.35;;;;;;;;;;4963806;28;20177;-80
2022/10/14 07:40:43;;;;;;;110.70;35.97;;;;;;;;;;4963966;28;20046;-79
2022/10/14 07:43:08;;;;;;;112.07;37.10;;;;;;;;;;4953174;28;20047;-80
2022/10/14 07:45:35;;;;;;;111.68;36.97;;;;;;;12.46;100.00;68152.56;4956875;28;20141;-81
2022/10/14 07:48:01;;;;;;;104.30;38.03;;;;;;;12.49;100.00;68153.28;4937362;28;20046;-81
2022/10/14 07:50:26;;;;;;;108.70;36.78;;;;;;;12.51;100.00;68158.22;4955182;28;20043;-78
2022/10/14 07:52:52;;;;;;;113.60;38.65;;;;;;;12.55;100.00;68162.78;4958800;28;20031;-78
2022/10/14 07:55:18;;;;;;;106.47;36.45;;;;;;;12.57;100.00;68165.06;4956920;28;20065;-79
2022/10/14 07:57:43;;;;;;;96.10;36.33;;;;;;;12.61;100.00;68169.03;4959579;28;20176;-78
2022/10/14 08:00:09;;;;;;;100.50;37.10;;;;;;;12.63;100.00;68171.88;4953639;28;20050;-78
2022/10/14 08:02:34;;;;;;;95.20;34.67;;;;;;;;;;4964700;28;20070;-78
2022/10/14 08:05:00;;;;;;;93.25;35.55;;;;;;;12.67;100.00;68175.84;4954676;28;20592;-78
2022/10/14 08:07:26;;;;;;;86.47;35.28;;;;;;;12.69;100.00;68178.13;4954444;28;20484;-80
2022/10/14 08:09:55;;;;;;;84.55;33.28;;;;;;;12.72;100.00;68180.97;4958197;28;21952;-81
2022/10/14 08:12:20;;;;;;;81.22;33.00;;;;;;;12.73;100.00;68182.09;4953122;28;20533;-77
2022/10/14 08:14:46;;;;;;;82.05;34.83;;;;;;;12.76;100.00;68185.50;4957817;28;20043;-77
2022/10/14 08:17:11;;;;;;;77.20;32.60;;;;;;;;;;4951734;28;20406;-78
2022/10/14 08:19:36;;;;;;;81.85;34.47;;;;;;;12.84;100.00;68194.59;4952658;28;20047;-77
2022/10/14 08:22:01;;;;;;;73.50;32.22;;;;;;;12.91;100.00;68202.00;4957329;28;20049;-77
2022/10/14 08:24:27;;;;;;;73.32;32.20;;;;;;;12.94;100.00;68205.41;4953873;28;20088;-81
2022/10/14 08:26:57;;;;;;;74.47;32.13;;;;;;;12.95;100.00;68204.44;4955828;28;20042;-78
2022/10/14 08:29:23;;;;;;;67.55;32.70;;;;;;;;;;4948191;28;20042;-81
2022/10/14 08:31:50;;;;;;;69.63;32.20;;;;;;;13.02;100.00;68211.84;4954734;28;20035;-78
2022/10/14 08:34:19;;;;;;;68.13;31.95;;;;;;;13.04;100.00;68217.34;4959279;28;20054;-82
2022/10/14 08:36:45;;;;;;;68.13;32.85;;;;;;;13.08;100.00;68218.66;4956514;28;20127;-79
2022/10/14 08:39:10;;;;;;;64.10;29.90;;;;;;;;;;4951797;28;20130;-78
2022/10/14 08:42:14;;;;;;;65.57;30.50;;;;;;;13.15;100.00;68228.72;4957656;28;20047;-80
2022/10/14 08:44:50;;;;;;;57.88;29.92;;;;;;;13.15;100.00;68226.63;4925493;28;20299;-79
2022/10/14 08:47:22;;;;;;;58.00;30.55;;;;;;;13.17;100.00;68228.88;4956623;28;20051;-77
2022/10/14 08:49:54;;;;;;;56.95;28.50;;;;;;;;;;4941305;28;20519;-77
2022/10/14 08:52:38;;;;;;;56.90;28.88;;;;;;;13.22;100.00;68237.25;4955792;28;20074;-77
2022/10/14 08:55:22;;;;;;;59.17;29.42;;;;;;;13.24;100.00;68236.84;4953003;28;20137;-78
2022/10/14 08:57:57;;;;;;;54.80;26.88;;;;;;;13.24;100.00;68236.28;4938150;28;20510;-78
2022/10/14 09:00:23;;;;;;;58.08;28.23;;;;;;;13.24;100.00;68239.53;4935116;28;20533;-78
2022/10/14 09:02:50;;;;;;;54.03;26.85;;;;;;;13.27;100.00;68240.28;4959879;28;20259;-77
2022/10/14 09:05:20;;;;;;;57.70;28.35;;;;;;;13.28;100.00;68244.09;4950801;28;20054;-77
2022/10/14 09:07:46;;;;;;;57.28;30.05;;;;;;;;;;4950782;28;20155;-78
2022/10/14 09:10:21;;;;;;;53.25;26.63;;;;;;;13.31;100.00;68246.94;4951167;28;20075;-78
2022/10/14 09:12:47;;;;;;;56.63;27.42;;;;;;;13.35;100.00;68251.50;4958598;28;20409;-78
2022/10/14 09:15:21;;;;;;;56.65;27.88;;;;;;;13.36;100.00;68249.38;4934611;28;20051;-78
2022/10/14 09:17:50;;;;;;;53.38;27.20;;;;;;;13.37;100.00;68253.19;4951110;28;20326;-78
2022/10/14 09:20:19;;;;;;;57.70;27.30;;;;;;;13.37;100.00;68253.19;4944009;28;20427;-78
2022/10/14 09:22:49;;;;;;;60.42;28.95;;;;;;;;;;4954640;28;20090;-78
2022/10/14 09:25:16;;;;;;;60.33;30.60;;;;;;;13.40;100.00;68254.50;4949093;28;20052;-77
2022/10/14 09:27:42;;;;;;;52.53;28.65;;;;;;;13.42;100.00;68259.44;4953149;28;20066;-78
2022/10/14 09:30:13;;;;;;;58.67;28.83;;;;;;;13.42;100.00;68259.44;4953438;28;20414;-77
2022/10/14 09:32:39;;;;;;;63.08;31.15;;;;;;;;;;4933752;29;20063;-76
2022/10/14 09:35:13;;;;;;;58.95;30.10;;;;;;;;;;4949292;28;20051;-80
2022/10/14 09:37:38;;;;;;;61.45;31.52;;;;;;;13.52;100.00;68276.19;4945626;28;20049;-79
2022/10/14 09:40:15;;;;;;;57.78;30.98;;;;;;;13.55;100.00;68273.66;4953084;28;20044;-77
2022/10/14 09:42:56;;;;;;;63.70;30.58;;;;;;;13.57;100.00;68273.25;4952858;28;20500;-78
2022/10/14 09:45:23;;;;;;;60.22;30.58;;;;;;;;;;4950939;28;20035;-77
2022/10/14 09:47:55;;;;;;;59.40;30.85;;;;;;;13.63;100.00;68277.41;4956342;28;20043;-80
2022/10/14 09:50:43;;;;;;;58.65;29.55;;;;;;;13.62;100.00;68281.06;4950670;28;20417;-80
2022/10/14 09:53:18;;;;;;;61.22;31.92;;;;;;;13.66;100.00;68286.16;4960077;28;20480;-80
2022/10/14 09:56:10;;;;;;;57.83;30.02;;;;;;;13.67;100.00;68287.31;4960919;28;20125;-79
2022/10/14 09:58:49;;;;;;;57.75;31.33;;;;;;;13.69;100.00;68289.56;4950259;28;20047;-78
2022/10/14 10:01:17;;;;;;;;;;;;;;;13.73;100.00;68294.13;4947377;28;20179;-80
2022/10/14 10:03:44;;;;;;;53.65;29.27;;;;;;;;;;4957998;28;20292;-78
2022/10/14 10:06:11;;;;;;;53.10;30.90;;;;;;;;;;4949465;28;20054;-77
2022/10/14 10:09:00;;;;;;;52.60;28.27;;;;;;;13.70;100.00;68290.72;4954588;28;20051;-78
2022/10/14 10:11:28;;;;;;;53.70;30.30;;;;;;;13.72;100.00;68290.34;4933035;28;20562;-80
2022/10/14 11:26:23;;;;;;;28.35;20.65;;;;;;;14.57;100.00;68387.47;4958345;28;20063;-78
2022/10/14 11:29:07;;;;;;;27.45;19.92;;;;;;;14.63;100.00;68391.06;4954318;28;20102;-77
2022/10/14 11:31:50;;;;;;;27.23;20.20;;;;;;;14.69;100.00;68400.00;4924912;29;20209;-77
2022/10/14 11:34:46;;;;;;;26.00;19.10;;;;;;;14.71;100.00;68396.94;4940115;29;20040;-77
2022/10/14 13:43:57;;;;;;;13.85;11.50;;;;;;;14.85;100.00;68415.53;6064494;22;20331;-77
2022/10/14 13:46:39;;;;;;;14.52;11.75;;;;;;;14.84;100.00;68417.06;4959317;28;20122;-79
2022/10/14 13:49:12;;;;;;;14.73;11.85;;;;;;;14.83;100.00;68416.50;4954812;28;20042;-79
2022/10/14 13:51:46;;;;;;;18.63;13.23;;;;;;;14.84;100.00;68422.44;4956509;28;20049;-80
2022/10/14 13:54:25;;;;;;;15.93;12.70;;;;;;;14.82;100.00;68412.13;4963849;28;20074;-79
2022/10/14 13:57:08;;;;;;;;;;;;;;;14.83;100.00;68415.94;4959491;28;20042;-77
2022/10/14 13:59:39;;;;;;;18.50;14.48;;;;;;;14.73;100.00;68405.13;4950659;28;19954;-78
2022/10/14 14:02:14;;;;;;;16.05;13.05;;;;;;;14.72;100.00;68398.06;4956823;28;20098;-77
2022/10/14 14:04:40;;;;;;;15.40;12.52;;;;;;;;;;4950870;28;20134;-78
2022/10/14 14:07:06;;;;;;;17.27;13.82;;;;;;;14.73;100.00;68399.19;4939434;29;20130;-78
2022/10/14 14:09:33;;;;;;;17.17;13.60;;;;;;;14.75;100.00;68404.16;4956791;28;20077;-78
2022/10/14 14:12:03;;;;;;;16.73;13.65;;;;;;;14.75;100.00;68402.03;4952590;28;20463;-77
2022/10/14 14:14:55;;;;;;;18.23;14.63;;;;;;;14.77;100.00;68409.13;4955317;28;20043;-77
2022/10/14 14:17:22;;;;;;;16.08;12.82;;;;;;;14.73;100.00;68399.19;4945921;28;20055;-76
2022/10/14 14:19:49;;;;;;;18.08;13.00;;;;;;;14.70;100.00;68401.69;4958564;28;20043;-78
2022/10/14 14:22:27;;;;;;;18.48;15.32;;;;;;;14.70;100.00;68398.44;4953744;28;20126;-77
2022/10/14 14:25:12;;;;;;;17.38;13.88;;;;;;;14.69;100.00;68400.56;4945984;28;20129;-78
2022/10/14 14:27:47;;;;;;;16.63;13.43;;;;;;;14.66;100.00;68394.47;4967459;28;20058;-76
2022/10/14 14:30:26;;;;;;;17.83;13.57;;;;;;;14.65;100.00;68396.59;4951989;28;20051;-78
2022/10/14 14:32:53;;;;;;;;;;;;;;;14.67;100.00;68398.28;4953147;28;20121;-77
2022/10/14 14:35:19;;;;;;;15.55;12.45;;;;;;;14.57;100.00;68387.47;4954453;28;20485;-76
2022/10/14 14:37:45;;;;;;;17.80;14.63;;;;;;;14.55;100.00;68390.56;4950685;28;20266;-77
2022/10/14 14:40:15;;;;;;;20.70;15.27;;;;;;;;;;4950694;28;20058;-77
2022/10/14 14:42:42;;;;;;;20.05;15.38;;;;;;;14.58;100.00;68385.94;4953905;28;20051;-78
2022/10/14 14:45:16;;;;;;;19.30;15.77;;;;;;;14.58;100.00;68388.03;4938418;28;20635;-77
2022/10/14 14:47:43;;;;;;;19.10;15.02;;;;;;;14.58;100.00;68385.94;4951802;28;20046;-78
2022/10/14 14:50:12;;;;;;;19.48;15.35;;;;;;;;;;4951995;28;20085;-76
2022/10/14 14:52:38;;;;;;;20.42;16.08;;;;;;;;;;4954113;28;20340;-77
2022/10/14 14:55:04;;;;;;;20.33;16.38;;;;;;;14.59;100.00;68387.09;4950873;28;20046;-77
2022/10/14 14:57:29;;;;;;;22.90;17.10;;;;;;;14.57;100.00;68387.47;4940088;28;20051;-78
2022/10/14 15:00:00;;;;;;;21.77;17.15;;;;;;;14.58;100.00;68385.94;4956103;28;20406;-76
2022/10/14 15:02:26;;;;;;;23.27;17.85;;;;;;;;;;4953155;28;20074;-80
2022/10/14 15:05:18;;;;;;;23.02;18.77;;;;;;;14.58;100.00;68388.59;4954568;28;20494;-78
2022/10/14 15:07:44;;;;;;;23.38;18.45;;;;;;;14.58;100.00;68388.59;4922116;28;20478;-78
2022/10/14 15:10:18;;;;;;;23.25;17.85;;;;;;;;;;4940453;28;20039;-77
2022/10/14 15:12:52;;;;;;;23.52;18.50;;;;;;;14.59;100.00;68389.75;4955463;28;20062;-78
2022/10/14 15:15:52;;;;;;;23.88;18.83;;;;;;;14.57;100.00;68384.81;4956477;28;20052;-77
2022/10/14 15:18:26;;;;;;;27.27;20.25;;;;;;;14.57;100.00;68387.47;4938390;28;20074;-77
2022/10/14 15:21:23;;;;;;;26.02;19.98;;;;;;;14.55;100.00;68390.56;4953361;28;20038;-77
2022/10/14 15:23:48;;;;;;;26.35;20.58;;;;;;;14.54;100.00;68384.06;4964905;28;20586;-79
2022/10/14 15:26:33;;;;;;;27.00;19.20;;;;;;;14.54;100.00;68383.50;4952951;28;20040;-82